sensor_id;sensor_type;location;lat;lon;timestamp;P1;durP1;ratioP1;P2;durP2;ratioP2
25838;SDS011;13669;50.186;27.062;2022-12-10T00:01:26;16.85;;;7.72;;
25838;SDS011;13669;50.186;27.062;2022-12-10T00:03:54;15.15;;;7.60;;
25838;SDS011;13669;50.186;27.062;2022-12-10T00:06:23;14.82;;;7.05;;
25838;SDS011;13669;50.186;27.062;2022-12-10T00:08:52;15.40;;;7.45;;
25838;SDS011;13669;50.186;27.062;2022-12-10T00:11:21;16.45;;;7.07;;
25838;SDS011;13669;50.186;27.062;2022-12-10T00:13:49;17.02;;;8.27;;
25838;SDS011;13669;50.186;27.062;2022-12-10T00:16:18;20.05;;;8.50;;
25838;SDS011;13669;50.186;27.062;2022-12-10T00:18:47;15.50;;;7.45;;
25838;SDS011;13669;50.186;27.062;2022-12-10T00:21:17;15.13;;;7.05;;
25838;SDS011;13669;50.186;27.062;2022-12-10T00:23:49;12.38;;;6.70;;
25838;SDS011;13669;50.186;27.062;2022-12-10T00:26:18;12.40;;;6.78;;
25838;SDS011;13669;50.186;27.062;2022-12-10T00:28:48;11.82;;;6.68;;
25838;SDS011;13669;50.186;27.062;2022-12-10T00:31:18;12.90;;;6.45;;
25838;SDS011;13669;50.186;27.062;2022-12-10T00:33:50;12.80;;;6.80;;
25838;SDS011;13669;50.186;27.062;2022-12-10T00:36:22;12.63;;;6.47;;
25838;SDS011;13669;50.186;27.062;2022-12-10T00:41:19;13.40;;;6.70;;
25838;SDS011;13669;50.186;27.062;2022-12-10T00:43:47;13.05;;;6.47;;
25838;SDS011;13669;50.186;27.062;2022-12-10T00:46:16;11.68;;;6.22;;
25838;SDS011;13669;50.186;27.062;2022-12-10T00:48:45;12.20;;;6.00;;
25838;SDS011;13669;50.186;27.062;2022-12-10T00:51:14;11.48;;;5.95;;
25838;SDS011;13669;50.186;27.062;2022-12-10T00:53:44;10.77;;;5.43;;
25838;SDS011;13669;50.186;27.062;2022-12-10T00:56:13;11.38;;;5.85;;
25838;SDS011;13669;50.186;27.062;2022-12-10T01:01:12;11.73;;;6.15;;
25838;SDS011;13669;50.186;27.062;2022-12-10T01:03:49;12.75;;;5.93;;
25838;SDS011;13669;50.186;27.062;2022-12-10T01:06:20;11.57;;;5.78;;
25838;SDS011;13669;50.186;27.062;2022-12-10T01:08:58;11.95;;;6.15;;
25838;SDS011;13669;50.186;27.062;2022-12-10T01:11:33;12.27;;;6.37;;
25838;SDS011;13669;50.186;27.062;2022-12-10T01:14:04;12.50;;;6.35;;
25838;SDS011;13669;50.186;27.062;2022-12-10T01:16:33;11.60;;;6.05;;
25838;SDS011;13669;50.186;27.062;2022-12-10T01:19:01;13.27;;;6.43;;
25838;SDS011;13669;50.186;27.062;2022-12-10T01:21:29;12.00;;;6.20;;
25838;SDS011;13669;50.186;27.062;2022-12-10T01:23:57;11.40;;;6.32;;
25838;SDS011;13669;50.186;27.062;2022-12-10T01:26:26;11.45;;;6.22;;
25838;SDS011;13669;50.186;27.062;2022-12-10T01:28:55;10.65;;;6.30;;
25838;SDS011;13669;50.186;27.062;2022-12-10T01:31:27;13.88;;;6.70;;
25838;SDS011;13669;50.186;27.062;2022-12-10T01:33:58;19.63;;;8.75;;
25838;SDS011;13669;50.186;27.062;2022-12-10T01:36:27;20.70;;;9.50;;
25838;SDS011;13669;50.186;27.062;2022-12-10T01:38:56;17.33;;;8.40;;
25838;SDS011;13669;50.186;27.062;2022-12-10T01:41:25;14.82;;;7.47;;
25838;SDS011;13669;50.186;27.062;2022-12-10T01:44:00;13.25;;;6.78;;
25838;SDS011;13669;50.186;27.062;2022-12-10T01:49:16;13.10;;;6.95;;
25838;SDS011;13669;50.186;27.062;2022-12-10T01:51:49;13.93;;;6.65;;
25838;SDS011;13669;50.186;27.062;2022-12-10T01:54:27;11.35;;;6.25;;
25838;SDS011;13669;50.186;27.062;2022-12-10T01:59:29;14.13;;;6.78;;
25838;SDS011;13669;50.186;27.062;2022-12-10T02:02:01;9.95;;;5.45;;
25838;SDS011;13669;50.186;27.062;2022-12-10T02:09:52;11.95;;;6.18;;
25838;SDS011;13669;50.186;27.062;2022-12-10T02:12:24;11.98;;;6.53;;
25838;SDS011;13669;50.186;27.062;2022-12-10T02:22:46;10.80;;;5.75;;
25838;SDS011;13669;50.186;27.062;2022-12-10T02:25:19;11.43;;;6.40;;
25838;SDS011;13669;50.186;27.062;2022-12-10T02:27:53;11.15;;;6.78;;
25838;SDS011;13669;50.186;27.062;2022-12-10T02:30:35;14.95;;;7.38;;
25838;SDS011;13669;50.186;27.062;2022-12-10T02:33:03;12.48;;;7.10;;
25838;SDS011;13669;50.186;27.062;2022-12-10T02:35:33;12.05;;;6.82;;
25838;SDS011;13669;50.186;27.062;2022-12-10T02:38:24;14.02;;;7.30;;
25838;SDS011;13669;50.186;27.062;2022-12-10T02:40:57;10.77;;;6.10;;
25838;SDS011;13669;50.186;27.062;2022-12-10T02:43:34;12.45;;;7.40;;
25838;SDS011;13669;50.186;27.062;2022-12-10T02:46:02;12.00;;;6.63;;
25838;SDS011;13669;50.186;27.062;2022-12-10T02:48:32;12.02;;;6.88;;
25838;SDS011;13669;50.186;27.062;2022-12-10T02:51:01;12.15;;;6.80;;
25838;SDS011;13669;50.186;27.062;2022-12-10T02:53:29;11.70;;;6.93;;
25838;SDS011;13669;50.186;27.062;2022-12-10T02:58:59;13.50;;;7.53;;
25838;SDS011;13669;50.186;27.062;2022-12-10T03:06:59;14.32;;;7.18;;
25838;SDS011;13669;50.186;27.062;2022-12-10T03:09:37;15.18;;;7.90;;
25838;SDS011;13669;50.186;27.062;2022-12-10T03:12:19;14.18;;;7.80;;
25838;SDS011;13669;50.186;27.062;2022-12-10T03:14:52;15.47;;;8.57;;
25838;SDS011;13669;50.186;27.062;2022-12-10T03:17:25;17.30;;;8.30;;
25838;SDS011;13669;50.186;27.062;2022-12-10T03:19:55;16.55;;;8.88;;
25838;SDS011;13669;50.186;27.062;2022-12-10T03:22:24;19.77;;;9.00;;
25838;SDS011;13669;50.186;27.062;2022-12-10T03:24:52;18.17;;;8.88;;
25838;SDS011;13669;50.186;27.062;2022-12-10T03:27:20;19.88;;;8.80;;
25838;SDS011;13669;50.186;27.062;2022-12-10T03:29:53;18.83;;;9.38;;
25838;SDS011;13669;50.186;27.062;2022-12-10T03:32:24;20.55;;;9.07;;
25838;SDS011;13669;50.186;27.062;2022-12-10T03:34:54;24.08;;;9.38;;
25838;SDS011;13669;50.186;27.062;2022-12-10T03:37:24;19.88;;;9.57;;
25838;SDS011;13669;50.186;27.062;2022-12-10T03:39:53;19.98;;;9.68;;
25838;SDS011;13669;50.186;27.062;2022-12-10T03:42:21;19.88;;;9.55;;
25838;SDS011;13669;50.186;27.062;2022-12-10T03:44:49;20.20;;;9.95;;
25838;SDS011;13669;50.186;27.062;2022-12-10T03:47:18;20.00;;;10.27;;
25838;SDS011;13669;50.186;27.062;2022-12-10T03:49:46;24.90;;;10.80;;
25838;SDS011;13669;50.186;27.062;2022-12-10T03:52:14;23.30;;;10.55;;
25838;SDS011;13669;50.186;27.062;2022-12-10T03:54:41;23.13;;;10.60;;
25838;SDS011;13669;50.186;27.062;2022-12-10T03:57:08;21.00;;;10.20;;
25838;SDS011;13669;50.186;27.062;2022-12-10T03:59:36;23.05;;;10.85;;
25838;SDS011;13669;50.186;27.062;2022-12-10T04:02:03;29.40;;;12.15;;
25838;SDS011;13669;50.186;27.062;2022-12-10T04:04:31;29.67;;;13.70;;
25838;SDS011;13669;50.186;27.062;2022-12-10T04:06:59;31.27;;;13.13;;
25838;SDS011;13669;50.186;27.062;2022-12-10T04:09:26;31.58;;;13.40;;
25838;SDS011;13669;50.186;27.062;2022-12-10T04:11:57;27.20;;;12.18;;
25838;SDS011;13669;50.186;27.062;2022-12-10T04:14:25;26.27;;;11.80;;
25838;SDS011;13669;50.186;27.062;2022-12-10T04:17:13;23.88;;;10.80;;
25838;SDS011;13669;50.186;27.062;2022-12-10T04:19:41;27.63;;;11.30;;
25838;SDS011;13669;50.186;27.062;2022-12-10T04:22:09;26.40;;;10.82;;
25838;SDS011;13669;50.186;27.062;2022-12-10T04:24:55;21.63;;;9.27;;
25838;SDS011;13669;50.186;27.062;2022-12-10T04:27:41;21.67;;;8.68;;
25838;SDS011;13669;50.186;27.062;2022-12-10T04:30:10;22.80;;;9.75;;
25838;SDS011;13669;50.186;27.062;2022-12-10T04:32:38;20.30;;;8.18;;
25838;SDS011;13669;50.186;27.062;2022-12-10T04:35:06;18.98;;;8.50;;
25838;SDS011;13669;50.186;27.062;2022-12-10T04:37:34;24.20;;;9.00;;
25838;SDS011;13669;50.186;27.062;2022-12-10T04:40:01;21.05;;;8.70;;
25838;SDS011;13669;50.186;27.062;2022-12-10T04:42:29;21.40;;;9.95;;
25838;SDS011;13669;50.186;27.062;2022-12-10T04:44:57;17.15;;;8.52;;
25838;SDS011;13669;50.186;27.062;2022-12-10T04:47:24;18.85;;;8.13;;
25838;SDS011;13669;50.186;27.062;2022-12-10T04:49:51;20.73;;;8.60;;
25838;SDS011;13669;50.186;27.062;2022-12-10T04:52:19;19.70;;;8.60;;
25838;SDS011;13669;50.186;27.062;2022-12-10T04:54:46;17.90;;;8.40;;
25838;SDS011;13669;50.186;27.062;2022-12-10T04:57:14;18.08;;;7.82;;
25838;SDS011;13669;50.186;27.062;2022-12-10T04:59:41;15.32;;;7.35;;
25838;SDS011;13669;50.186;27.062;2022-12-10T05:02:09;21.20;;;9.02;;
25838;SDS011;13669;50.186;27.062;2022-12-10T05:04:37;27.65;;;10.50;;
25838;SDS011;13669;50.186;27.062;2022-12-10T05:07:04;22.88;;;9.98;;
25838;SDS011;13669;50.186;27.062;2022-12-10T05:09:32;22.33;;;9.73;;
25838;SDS011;13669;50.186;27.062;2022-12-10T05:11:59;21.95;;;9.05;;
25838;SDS011;13669;50.186;27.062;2022-12-10T05:14:27;19.15;;;8.35;;
25838;SDS011;13669;50.186;27.062;2022-12-10T05:16:54;19.83;;;8.52;;
25838;SDS011;13669;50.186;27.062;2022-12-10T05:19:22;20.33;;;9.02;;
25838;SDS011;13669;50.186;27.062;2022-12-10T05:21:50;21.02;;;8.15;;
25838;SDS011;13669;50.186;27.062;2022-12-10T05:24:36;20.67;;;8.48;;
25838;SDS011;13669;50.186;27.062;2022-12-10T05:27:04;21.85;;;10.35;;
25838;SDS011;13669;50.186;27.062;2022-12-10T05:29:32;28.98;;;12.07;;
25838;SDS011;13669;50.186;27.062;2022-12-10T05:32:00;30.17;;;11.45;;
25838;SDS011;13669;50.186;27.062;2022-12-10T05:34:29;23.55;;;9.32;;
25838;SDS011;13669;50.186;27.062;2022-12-10T05:36:56;19.38;;;8.38;;
25838;SDS011;13669;50.186;27.062;2022-12-10T05:39:23;17.38;;;8.50;;
25838;SDS011;13669;50.186;27.062;2022-12-10T05:41:51;19.35;;;8.73;;
25838;SDS011;13669;50.186;27.062;2022-12-10T05:44:18;20.38;;;8.80;;
25838;SDS011;13669;50.186;27.062;2022-12-10T05:46:46;16.58;;;7.70;;
25838;SDS011;13669;50.186;27.062;2022-12-10T05:49:13;18.25;;;7.55;;
25838;SDS011;13669;50.186;27.062;2022-12-10T05:51:40;16.83;;;7.20;;
25838;SDS011;13669;50.186;27.062;2022-12-10T05:54:09;19.92;;;8.15;;
25838;SDS011;13669;50.186;27.062;2022-12-10T05:56:36;16.35;;;7.45;;
25838;SDS011;13669;50.186;27.062;2022-12-10T05:59:04;15.80;;;7.53;;
25838;SDS011;13669;50.186;27.062;2022-12-10T06:01:40;17.65;;;8.15;;
25838;SDS011;13669;50.186;27.062;2022-12-10T06:04:08;16.42;;;7.97;;
25838;SDS011;13669;50.186;27.062;2022-12-10T06:06:36;18.42;;;8.40;;
25838;SDS011;13669;50.186;27.062;2022-12-10T06:09:05;18.95;;;8.93;;
25838;SDS011;13669;50.186;27.062;2022-12-10T06:11:37;18.15;;;8.75;;
25838;SDS011;13669;50.186;27.062;2022-12-10T06:14:04;17.33;;;8.40;;
25838;SDS011;13669;50.186;27.062;2022-12-10T06:16:32;18.05;;;8.23;;
25838;SDS011;13669;50.186;27.062;2022-12-10T06:18:59;16.30;;;8.40;;
25838;SDS011;13669;50.186;27.062;2022-12-10T06:21:27;16.65;;;8.20;;
25838;SDS011;13669;50.186;27.062;2022-12-10T06:23:54;18.13;;;8.98;;
25838;SDS011;13669;50.186;27.062;2022-12-10T06:26:23;28.13;;;12.50;;
25838;SDS011;13669;50.186;27.062;2022-12-10T06:28:52;28.05;;;13.30;;
25838;SDS011;13669;50.186;27.062;2022-12-10T06:31:21;28.27;;;12.93;;
25838;SDS011;13669;50.186;27.062;2022-12-10T06:33:50;29.52;;;12.52;;
25838;SDS011;13669;50.186;27.062;2022-12-10T06:36:18;27.50;;;12.10;;
25838;SDS011;13669;50.186;27.062;2022-12-10T06:38:45;36.17;;;16.20;;
25838;SDS011;13669;50.186;27.062;2022-12-10T06:41:14;40.53;;;19.25;;
25838;SDS011;13669;50.186;27.062;2022-12-10T06:43:43;30.17;;;13.95;;
25838;SDS011;13669;50.186;27.062;2022-12-10T06:46:11;26.08;;;13.10;;
25838;SDS011;13669;50.186;27.062;2022-12-10T06:48:40;23.07;;;11.87;;
25838;SDS011;13669;50.186;27.062;2022-12-10T06:51:08;24.80;;;12.38;;
25838;SDS011;13669;50.186;27.062;2022-12-10T06:53:37;24.45;;;12.15;;
25838;SDS011;13669;50.186;27.062;2022-12-10T06:56:06;27.00;;;11.77;;
25838;SDS011;13669;50.186;27.062;2022-12-10T07:01:17;21.20;;;9.18;;
25838;SDS011;13669;50.186;27.062;2022-12-10T07:03:53;24.00;;;11.23;;
25838;SDS011;13669;50.186;27.062;2022-12-10T07:06:23;23.67;;;11.20;;
25838;SDS011;13669;50.186;27.062;2022-12-10T07:08:51;22.95;;;11.30;;
25838;SDS011;13669;50.186;27.062;2022-12-10T07:11:20;24.83;;;12.52;;
25838;SDS011;13669;50.186;27.062;2022-12-10T07:13:49;28.13;;;11.77;;
25838;SDS011;13669;50.186;27.062;2022-12-10T07:16:18;27.60;;;12.98;;
25838;SDS011;13669;50.186;27.062;2022-12-10T07:18:48;26.73;;;12.75;;
25838;SDS011;13669;50.186;27.062;2022-12-10T07:23:51;40.45;;;17.50;;
25838;SDS011;13669;50.186;27.062;2022-12-10T07:26:20;38.50;;;17.52;;
25838;SDS011;13669;50.186;27.062;2022-12-10T07:28:48;38.60;;;16.00;;
25838;SDS011;13669;50.186;27.062;2022-12-10T07:31:19;33.83;;;14.82;;
25838;SDS011;13669;50.186;27.062;2022-12-10T07:33:49;33.90;;;15.00;;
25838;SDS011;13669;50.186;27.062;2022-12-10T07:36:18;36.97;;;15.80;;
25838;SDS011;13669;50.186;27.062;2022-12-10T07:38:47;35.80;;;15.38;;
25838;SDS011;13669;50.186;27.062;2022-12-10T07:41:16;37.35;;;14.90;;
25838;SDS011;13669;50.186;27.062;2022-12-10T07:43:44;34.38;;;15.02;;
25838;SDS011;13669;50.186;27.062;2022-12-10T07:46:14;30.77;;;14.05;;
25838;SDS011;13669;50.186;27.062;2022-12-10T07:48:42;32.72;;;14.82;;
25838;SDS011;13669;50.186;27.062;2022-12-10T07:51:12;33.30;;;14.57;;
25838;SDS011;13669;50.186;27.062;2022-12-10T07:53:40;36.28;;;15.77;;
25838;SDS011;13669;50.186;27.062;2022-12-10T07:56:08;35.10;;;14.98;;
25838;SDS011;13669;50.186;27.062;2022-12-10T07:58:36;39.75;;;16.80;;
25838;SDS011;13669;50.186;27.062;2022-12-10T08:03:36;39.20;;;16.63;;
25838;SDS011;13669;50.186;27.062;2022-12-10T08:06:08;36.85;;;17.05;;
25838;SDS011;13669;50.186;27.062;2022-12-10T08:08:38;43.55;;;18.77;;
25838;SDS011;13669;50.186;27.062;2022-12-10T08:11:06;33.13;;;14.40;;
25838;SDS011;13669;50.186;27.062;2022-12-10T08:13:34;35.78;;;15.57;;
25838;SDS011;13669;50.186;27.062;2022-12-10T08:16:07;40.97;;;17.63;;
25838;SDS011;13669;50.186;27.062;2022-12-10T08:18:37;34.08;;;16.10;;
25838;SDS011;13669;50.186;27.062;2022-12-10T08:21:05;35.03;;;16.20;;
25838;SDS011;13669;50.186;27.062;2022-12-10T08:23:36;36.47;;;16.02;;
25838;SDS011;13669;50.186;27.062;2022-12-10T08:26:07;33.90;;;16.77;;
25838;SDS011;13669;50.186;27.062;2022-12-10T08:28:36;34.30;;;15.65;;
25838;SDS011;13669;50.186;27.062;2022-12-10T08:31:05;32.95;;;15.43;;
25838;SDS011;13669;50.186;27.062;2022-12-10T08:33:36;30.08;;;15.80;;
25838;SDS011;13669;50.186;27.062;2022-12-10T08:36:05;36.45;;;17.30;;
25838;SDS011;13669;50.186;27.062;2022-12-10T08:38:35;33.20;;;16.20;;
25838;SDS011;13669;50.186;27.062;2022-12-10T08:41:07;32.40;;;15.85;;
25838;SDS011;13669;50.186;27.062;2022-12-10T08:43:36;33.97;;;16.63;;
25838;SDS011;13669;50.186;27.062;2022-12-10T08:46:03;32.97;;;15.23;;
25838;SDS011;13669;50.186;27.062;2022-12-10T08:48:32;27.80;;;14.75;;
25838;SDS011;13669;50.186;27.062;2022-12-10T08:51:01;29.00;;;14.48;;
25838;SDS011;13669;50.186;27.062;2022-12-10T08:53:29;30.10;;;15.13;;
25838;SDS011;13669;50.186;27.062;2022-12-10T08:55:58;26.92;;;13.48;;
25838;SDS011;13669;50.186;27.062;2022-12-10T08:58:26;30.90;;;16.13;;
25838;SDS011;13669;50.186;27.062;2022-12-10T09:00:54;27.88;;;14.77;;
25838;SDS011;13669;50.186;27.062;2022-12-10T09:03:22;29.95;;;14.90;;
25838;SDS011;13669;50.186;27.062;2022-12-10T09:05:50;26.35;;;13.20;;
25838;SDS011;13669;50.186;27.062;2022-12-10T09:08:18;28.92;;;14.65;;
25838;SDS011;13669;50.186;27.062;2022-12-10T09:10:46;29.35;;;14.80;;
25838;SDS011;13669;50.186;27.062;2022-12-10T09:13:13;21.75;;;11.68;;
25838;SDS011;13669;50.186;27.062;2022-12-10T09:15:41;34.88;;;17.70;;
25838;SDS011;13669;50.186;27.062;2022-12-10T09:18:16;33.55;;;17.40;;
25838;SDS011;13669;50.186;27.062;2022-12-10T09:20:45;28.67;;;13.95;;
25838;SDS011;13669;50.186;27.062;2022-12-10T09:23:12;40.42;;;16.88;;
25838;SDS011;13669;50.186;27.062;2022-12-10T09:25:40;24.02;;;11.80;;
25838;SDS011;13669;50.186;27.062;2022-12-10T09:28:08;22.15;;;11.05;;
25838;SDS011;13669;50.186;27.062;2022-12-10T09:30:35;25.67;;;13.95;;
25838;SDS011;13669;50.186;27.062;2022-12-10T09:33:03;24.85;;;11.73;;
25838;SDS011;13669;50.186;27.062;2022-12-10T09:35:30;31.88;;;15.30;;
25838;SDS011;13669;50.186;27.062;2022-12-10T09:37:58;41.78;;;21.40;;
25838;SDS011;13669;50.186;27.062;2022-12-10T09:40:36;30.25;;;14.10;;
25838;SDS011;13669;50.186;27.062;2022-12-10T09:51:39;19.23;;;10.05;;
25838;SDS011;13669;50.186;27.062;2022-12-10T09:54:29;20.63;;;11.60;;
25838;SDS011;13669;50.186;27.062;2022-12-10T09:57:05;21.00;;;10.63;;
25838;SDS011;13669;50.186;27.062;2022-12-10T09:59:38;22.88;;;11.77;;
25838;SDS011;13669;50.186;27.062;2022-12-10T10:04:42;22.38;;;10.00;;
25838;SDS011;13669;50.186;27.062;2022-12-10T10:07:11;17.48;;;10.07;;
25838;SDS011;13669;50.186;27.062;2022-12-10T10:09:47;25.63;;;12.98;;
25838;SDS011;13669;50.186;27.062;2022-12-10T10:12:15;20.35;;;10.05;;
25838;SDS011;13669;50.186;27.062;2022-12-10T10:14:43;19.05;;;10.20;;
25838;SDS011;13669;50.186;27.062;2022-12-10T10:17:31;23.90;;;12.52;;
25838;SDS011;13669;50.186;27.062;2022-12-10T10:20:03;22.60;;;12.20;;
25838;SDS011;13669;50.186;27.062;2022-12-10T10:22:31;26.73;;;13.68;;
25838;SDS011;13669;50.186;27.062;2022-12-10T10:24:58;26.77;;;13.00;;
25838;SDS011;13669;50.186;27.062;2022-12-10T10:27:30;23.55;;;11.40;;
25838;SDS011;13669;50.186;27.062;2022-12-10T10:30:00;21.17;;;11.68;;
25838;SDS011;13669;50.186;27.062;2022-12-10T10:35:04;26.27;;;11.32;;
25838;SDS011;13669;50.186;27.062;2022-12-10T10:40:03;37.40;;;12.13;;
25838;SDS011;13669;50.186;27.062;2022-12-10T10:45:02;25.45;;;11.48;;
25838;SDS011;13669;50.186;27.062;2022-12-10T10:47:33;23.20;;;11.68;;
25838;SDS011;13669;50.186;27.062;2022-12-10T10:50:04;23.90;;;11.10;;
25838;SDS011;13669;50.186;27.062;2022-12-10T10:52:36;21.80;;;10.10;;
25838;SDS011;13669;50.186;27.062;2022-12-10T10:55:05;27.95;;;11.68;;
25838;SDS011;13669;50.186;27.062;2022-12-10T10:57:53;26.50;;;10.95;;
25838;SDS011;13669;50.186;27.062;2022-12-10T11:00:21;29.40;;;11.60;;
25838;SDS011;13669;50.186;27.062;2022-12-10T11:02:51;32.83;;;12.48;;
25838;SDS011;13669;50.186;27.062;2022-12-10T11:05:26;33.90;;;13.68;;
25838;SDS011;13669;50.186;27.062;2022-12-10T11:10:29;28.60;;;12.13;;
25838;SDS011;13669;50.186;27.062;2022-12-10T11:15:34;33.58;;;16.20;;
25838;SDS011;13669;50.186;27.062;2022-12-10T11:21:21;27.70;;;12.63;;
25838;SDS011;13669;50.186;27.062;2022-12-10T11:23:51;35.38;;;15.02;;
25838;SDS011;13669;50.186;27.062;2022-12-10T11:46:01;39.42;;;15.50;;
25838;SDS011;13669;50.186;27.062;2022-12-10T11:49:01;38.70;;;17.38;;
25838;SDS011;13669;50.186;27.062;2022-12-10T11:51:51;37.97;;;15.60;;
25838;SDS011;13669;50.186;27.062;2022-12-10T11:54:47;36.42;;;15.45;;
25838;SDS011;13669;50.186;27.062;2022-12-10T11:57:43;43.45;;;16.75;;
25838;SDS011;13669;50.186;27.062;2022-12-10T12:00:23;40.83;;;16.88;;
25838;SDS011;13669;50.186;27.062;2022-12-10T12:06:04;39.78;;;17.83;;
25838;SDS011;13669;50.186;27.062;2022-12-10T12:11:30;31.55;;;13.55;;
25838;SDS011;13669;50.186;27.062;2022-12-10T12:14:24;31.92;;;12.57;;
25838;SDS011;13669;50.186;27.062;2022-12-10T12:19:36;32.67;;;15.90;;
25838;SDS011;13669;50.186;27.062;2022-12-10T12:22:10;30.80;;;15.40;;
25838;SDS011;13669;50.186;27.062;2022-12-10T12:24:45;30.33;;;14.52;;
25838;SDS011;13669;50.186;27.062;2022-12-10T12:27:26;33.92;;;15.13;;
25838;SDS011;13669;50.186;27.062;2022-12-10T12:30:13;45.90;;;20.98;;
25838;SDS011;13669;50.186;27.062;2022-12-10T12:32:56;72.75;;;29.20;;
25838;SDS011;13669;50.186;27.062;2022-12-10T12:40:48;30.33;;;15.02;;
25838;SDS011;13669;50.186;27.062;2022-12-10T12:46:05;27.48;;;13.20;;
25838;SDS011;13669;50.186;27.062;2022-12-10T12:51:37;52.13;;;21.10;;
25838;SDS011;13669;50.186;27.062;2022-12-10T12:54:13;45.45;;;19.15;;
25838;SDS011;13669;50.186;27.062;2022-12-10T13:05:14;32.75;;;15.00;;
25838;SDS011;13669;50.186;27.062;2022-12-10T13:10:50;26.63;;;14.80;;
25838;SDS011;13669;50.186;27.062;2022-12-10T13:25:02;30.63;;;14.50;;
25838;SDS011;13669;50.186;27.062;2022-12-10T13:27:54;28.60;;;14.00;;
25838;SDS011;13669;50.186;27.062;2022-12-10T13:30:30;29.65;;;14.18;;
25838;SDS011;13669;50.186;27.062;2022-12-10T13:33:17;32.60;;;16.08;;
25838;SDS011;13669;50.186;27.062;2022-12-10T13:35:56;28.92;;;13.77;;
25838;SDS011;13669;50.186;27.062;2022-12-10T13:38:38;30.63;;;14.05;;
25838;SDS011;13669;50.186;27.062;2022-12-10T13:41:08;21.08;;;10.55;;
25838;SDS011;13669;50.186;27.062;2022-12-10T13:43:58;23.08;;;11.40;;
25838;SDS011;13669;50.186;27.062;2022-12-10T13:47:04;26.25;;;12.57;;
25838;SDS011;13669;50.186;27.062;2022-12-10T13:49:34;29.58;;;13.07;;
25838;SDS011;13669;50.186;27.062;2022-12-10T13:52:26;31.08;;;13.77;;
25838;SDS011;13669;50.186;27.062;2022-12-10T14:00:39;31.77;;;14.55;;
25838;SDS011;13669;50.186;27.062;2022-12-10T14:08:39;30.77;;;15.50;;
25838;SDS011;13669;50.186;27.062;2022-12-10T14:11:13;32.50;;;15.98;;
25838;SDS011;13669;50.186;27.062;2022-12-10T14:13:49;32.05;;;15.50;;
25838;SDS011;13669;50.186;27.062;2022-12-10T14:16:21;27.67;;;14.60;;
25838;SDS011;13669;50.186;27.062;2022-12-10T14:18:55;40.45;;;22.80;;
25838;SDS011;13669;50.186;27.062;2022-12-10T14:21:31;43.88;;;21.90;;
25838;SDS011;13669;50.186;27.062;2022-12-10T14:24:03;32.28;;;17.63;;
25838;SDS011;13669;50.186;27.062;2022-12-10T14:26:35;30.65;;;15.32;;
25838;SDS011;13669;50.186;27.062;2022-12-10T14:31:35;46.10;;;22.38;;
25838;SDS011;13669;50.186;27.062;2022-12-10T14:34:06;40.08;;;19.13;;
25838;SDS011;13669;50.186;27.062;2022-12-10T14:36:38;62.60;;;32.53;;
25838;SDS011;13669;50.186;27.062;2022-12-10T14:39:19;84.38;;;42.28;;
25838;SDS011;13669;50.186;27.062;2022-12-10T14:41:55;36.13;;;16.98;;
25838;SDS011;13669;50.186;27.062;2022-12-10T14:44:26;34.08;;;18.00;;
25838;SDS011;13669;50.186;27.062;2022-12-10T14:47:16;39.20;;;20.95;;
25838;SDS011;13669;50.186;27.062;2022-12-10T14:49:45;48.47;;;24.77;;
25838;SDS011;13669;50.186;27.062;2022-12-10T14:54:48;32.40;;;17.48;;
25838;SDS011;13669;50.186;27.062;2022-12-10T14:57:26;28.20;;;14.13;;
25838;SDS011;13669;50.186;27.062;2022-12-10T15:02:42;36.08;;;17.85;;
25838;SDS011;13669;50.186;27.062;2022-12-10T15:05:13;25.88;;;13.02;;
25838;SDS011;13669;50.186;27.062;2022-12-10T15:10:28;28.58;;;13.73;;
25838;SDS011;13669;50.186;27.062;2022-12-10T15:16:13;28.85;;;13.48;;
25838;SDS011;13669;50.186;27.062;2022-12-10T15:18:46;29.05;;;15.00;;
25838;SDS011;13669;50.186;27.062;2022-12-10T15:21:22;26.48;;;12.32;;
25838;SDS011;13669;50.186;27.062;2022-12-10T15:24:06;26.85;;;13.05;;
25838;SDS011;13669;50.186;27.062;2022-12-10T15:26:44;27.17;;;11.77;;
25838;SDS011;13669;50.186;27.062;2022-12-10T15:31:55;22.60;;;11.63;;
25838;SDS011;13669;50.186;27.062;2022-12-10T15:34:33;25.30;;;12.27;;
25838;SDS011;13669;50.186;27.062;2022-12-10T15:37:11;28.13;;;13.20;;
25838;SDS011;13669;50.186;27.062;2022-12-10T15:39:44;27.80;;;13.70;;
25838;SDS011;13669;50.186;27.062;2022-12-10T15:47:56;31.95;;;15.10;;
25838;SDS011;13669;50.186;27.062;2022-12-10T15:50:25;26.70;;;13.40;;
25838;SDS011;13669;50.186;27.062;2022-12-10T15:52:54;24.77;;;12.30;;
25838;SDS011;13669;50.186;27.062;2022-12-10T15:55:22;25.88;;;12.20;;
25838;SDS011;13669;50.186;27.062;2022-12-10T15:57:50;26.20;;;13.35;;
25838;SDS011;13669;50.186;27.062;2022-12-10T16:00:19;20.60;;;10.55;;
25838;SDS011;13669;50.186;27.062;2022-12-10T16:03:02;21.75;;;10.82;;
25838;SDS011;13669;50.186;27.062;2022-12-10T16:05:33;24.25;;;11.15;;
25838;SDS011;13669;50.186;27.062;2022-12-10T16:10:55;20.40;;;9.80;;
25838;SDS011;13669;50.186;27.062;2022-12-10T16:13:28;21.27;;;10.00;;
25838;SDS011;13669;50.186;27.062;2022-12-10T16:16:00;17.85;;;9.52;;
25838;SDS011;13669;50.186;27.062;2022-12-10T16:18:31;21.33;;;9.57;;
25838;SDS011;13669;50.186;27.062;2022-12-10T16:21:00;21.58;;;10.05;;
25838;SDS011;13669;50.186;27.062;2022-12-10T16:23:28;19.00;;;9.55;;
25838;SDS011;13669;50.186;27.062;2022-12-10T16:25:56;21.73;;;10.45;;
25838;SDS011;13669;50.186;27.062;2022-12-10T16:28:24;21.50;;;11.00;;
25838;SDS011;13669;50.186;27.062;2022-12-10T16:30:53;22.40;;;10.18;;
25838;SDS011;13669;50.186;27.062;2022-12-10T16:33:23;26.55;;;10.60;;
25838;SDS011;13669;50.186;27.062;2022-12-10T16:35:52;29.88;;;11.45;;
25838;SDS011;13669;50.186;27.062;2022-12-10T16:38:21;22.65;;;11.15;;
25838;SDS011;13669;50.186;27.062;2022-12-10T16:40:49;24.08;;;11.43;;
25838;SDS011;13669;50.186;27.062;2022-12-10T16:43:21;27.08;;;11.23;;
25838;SDS011;13669;50.186;27.062;2022-12-10T16:45:50;24.55;;;11.32;;
25838;SDS011;13669;50.186;27.062;2022-12-10T16:48:18;27.02;;;10.57;;
25838;SDS011;13669;50.186;27.062;2022-12-10T16:50:46;23.85;;;10.52;;
25838;SDS011;13669;50.186;27.062;2022-12-10T16:53:27;31.10;;;13.63;;
25838;SDS011;13669;50.186;27.062;2022-12-10T16:55:56;36.38;;;13.90;;
25838;SDS011;13669;50.186;27.062;2022-12-10T16:58:24;36.38;;;14.75;;
25838;SDS011;13669;50.186;27.062;2022-12-10T17:00:53;31.20;;;12.23;;
25838;SDS011;13669;50.186;27.062;2022-12-10T17:03:22;34.85;;;13.27;;
25838;SDS011;13669;50.186;27.062;2022-12-10T17:05:58;31.55;;;12.32;;
25838;SDS011;13669;50.186;27.062;2022-12-10T17:08:28;34.38;;;12.05;;
25838;SDS011;13669;50.186;27.062;2022-12-10T17:10:56;34.08;;;13.13;;
25838;SDS011;13669;50.186;27.062;2022-12-10T17:13:43;33.58;;;15.52;;
25838;SDS011;13669;50.186;27.062;2022-12-10T17:16:12;32.70;;;13.30;;
25838;SDS011;13669;50.186;27.062;2022-12-10T17:18:44;33.85;;;12.90;;
25838;SDS011;13669;50.186;27.062;2022-12-10T17:21:11;38.85;;;13.00;;
25838;SDS011;13669;50.186;27.062;2022-12-10T17:23:39;34.22;;;13.77;;